sensor_id;sensor_type;location;lat;lon;timestamp;P1;durP1;ratioP1;P2;durP2;ratioP2
65552;SDS011;52465;51.560;14.368;2023-03-01T00:01:53;41.33;;;24.00;;
65552;SDS011;52465;51.560;14.368;2023-03-01T00:04:19;47.08;;;24.00;;
65552;SDS011;52465;51.560;14.368;2023-03-01T00:06:44;40.05;;;23.25;;
65552;SDS011;52465;51.560;14.368;2023-03-01T00:09:14;47.42;;;22.98;;
65552;SDS011;52465;51.560;14.368;2023-03-01T00:11:40;47.70;;;24.10;;
65552;SDS011;52465;51.560;14.368;2023-03-01T00:14:06;45.53;;;23.48;;
65552;SDS011;52465;51.560;14.368;2023-03-01T00:16:33;45.47;;;22.88;;
65552;SDS011;52465;51.560;14.368;2023-03-01T00:19:03;39.78;;;22.88;;
65552;SDS011;52465;51.560;14.368;2023-03-01T00:24:15;40.92;;;23.73;;
65552;SDS011;52465;51.560;14.368;2023-03-01T00:26:41;44.15;;;22.85;;
65552;SDS011;52465;51.560;14.368;2023-03-01T00:29:10;43.88;;;23.60;;
65552;SDS011;52465;51.560;14.368;2023-03-01T00:31:35;40.15;;;22.70;;
65552;SDS011;52465;51.560;14.368;2023-03-01T00:34:02;46.00;;;23.55;;
65552;SDS011;52465;51.560;14.368;2023-03-01T00:36:31;36.83;;;22.30;;
65552;SDS011;52465;51.560;14.368;2023-03-01T00:38:58;50.30;;;24.70;;
65552;SDS011;52465;51.560;14.368;2023-03-01T00:41:24;39.13;;;22.63;;
65552;SDS011;52465;51.560;14.368;2023-03-01T00:43:51;43.90;;;23.90;;
65552;SDS011;52465;51.560;14.368;2023-03-01T00:46:19;45.63;;;23.65;;
65552;SDS011;52465;51.560;14.368;2023-03-01T00:48:47;42.10;;;22.58;;
65552;SDS011;52465;51.560;14.368;2023-03-01T00:51:14;42.85;;;22.23;;
65552;SDS011;52465;51.560;14.368;2023-03-01T00:56:29;41.70;;;24.02;;
65552;SDS011;52465;51.560;14.368;2023-03-01T00:58:55;41.80;;;22.25;;
65552;SDS011;52465;51.560;14.368;2023-03-01T01:01:22;34.92;;;20.95;;
65552;SDS011;52465;51.560;14.368;2023-03-01T01:03:50;33.17;;;20.95;;
65552;SDS011;52465;51.560;14.368;2023-03-01T01:06:38;43.03;;;22.70;;
65552;SDS011;52465;51.560;14.368;2023-03-01T01:09:10;40.78;;;22.13;;
65552;SDS011;52465;51.560;14.368;2023-03-01T01:11:47;44.42;;;21.80;;
65552;SDS011;52465;51.560;14.368;2023-03-01T01:16:39;40.85;;;21.75;;
65552;SDS011;52465;51.560;14.368;2023-03-01T01:19:05;42.88;;;22.55;;
65552;SDS011;52465;51.560;14.368;2023-03-01T01:21:31;39.95;;;22.23;;
65552;SDS011;52465;51.560;14.368;2023-03-01T01:23:57;37.45;;;22.15;;
65552;SDS011;52465;51.560;14.368;2023-03-01T01:26:24;39.60;;;22.70;;
65552;SDS011;52465;51.560;14.368;2023-03-01T01:28:52;45.80;;;23.30;;
65552;SDS011;52465;51.560;14.368;2023-03-01T01:31:18;43.97;;;21.63;;
65552;SDS011;52465;51.560;14.368;2023-03-01T01:33:45;43.65;;;21.90;;
65552;SDS011;52465;51.560;14.368;2023-03-01T01:36:11;44.25;;;22.27;;
65552;SDS011;52465;51.560;14.368;2023-03-01T01:38:40;43.47;;;23.25;;
65552;SDS011;52465;51.560;14.368;2023-03-01T01:41:07;45.33;;;21.90;;
65552;SDS011;52465;51.560;14.368;2023-03-01T01:43:38;39.90;;;21.98;;
65552;SDS011;52465;51.560;14.368;2023-03-01T01:46:13;40.92;;;22.67;;
65552;SDS011;52465;51.560;14.368;2023-03-01T01:48:41;46.63;;;23.50;;
65552;SDS011;52465;51.560;14.368;2023-03-01T01:51:15;45.22;;;21.85;;
65552;SDS011;52465;51.560;14.368;2023-03-01T01:53:44;42.92;;;22.55;;
65552;SDS011;52465;51.560;14.368;2023-03-01T01:56:15;43.05;;;21.88;;
65552;SDS011;52465;51.560;14.368;2023-03-01T01:58:43;40.42;;;21.25;;
65552;SDS011;52465;51.560;14.368;2023-03-01T02:01:13;42.08;;;21.58;;
65552;SDS011;52465;51.560;14.368;2023-03-01T02:03:39;37.50;;;21.60;;
65552;SDS011;52465;51.560;14.368;2023-03-01T02:08:54;40.03;;;20.88;;
65552;SDS011;52465;51.560;14.368;2023-03-01T02:11:25;44.45;;;21.73;;
65552;SDS011;52465;51.560;14.368;2023-03-01T02:13:53;38.58;;;20.77;;
65552;SDS011;52465;51.560;14.368;2023-03-01T02:16:19;36.25;;;20.98;;
65552;SDS011;52465;51.560;14.368;2023-03-01T02:18:45;41.67;;;21.15;;
65552;SDS011;52465;51.560;14.368;2023-03-01T02:24:09;36.92;;;20.45;;
65552;SDS011;52465;51.560;14.368;2023-03-01T02:26:45;43.35;;;20.55;;
65552;SDS011;52465;51.560;14.368;2023-03-01T02:29:15;39.38;;;21.30;;
65552;SDS011;52465;51.560;14.368;2023-03-01T02:31:42;38.33;;;20.77;;
65552;SDS011;52465;51.560;14.368;2023-03-01T02:34:15;40.40;;;19.95;;
65552;SDS011;52465;51.560;14.368;2023-03-01T02:36:48;36.50;;;21.25;;
65552;SDS011;52465;51.560;14.368;2023-03-01T02:39:20;36.22;;;20.17;;
65552;SDS011;52465;51.560;14.368;2023-03-01T02:41:55;33.58;;;20.90;;
65552;SDS011;52465;51.560;14.368;2023-03-01T02:44:23;41.53;;;21.83;;
65552;SDS011;52465;51.560;14.368;2023-03-01T02:46:51;38.08;;;21.02;;
65552;SDS011;52465;51.560;14.368;2023-03-01T02:49:21;35.67;;;20.52;;
65552;SDS011;52465;51.560;14.368;2023-03-01T02:57:28;34.15;;;20.10;;
65552;SDS011;52465;51.560;14.368;2023-03-01T02:59:56;36.13;;;19.00;;
65552;SDS011;52465;51.560;14.368;2023-03-01T03:02:28;34.67;;;19.85;;
65552;SDS011;52465;51.560;14.368;2023-03-01T03:05:05;32.47;;;19.27;;
65552;SDS011;52465;51.560;14.368;2023-03-01T03:07:37;32.17;;;19.67;;
65552;SDS011;52465;51.560;14.368;2023-03-01T03:10:06;34.00;;;18.35;;
65552;SDS011;52465;51.560;14.368;2023-03-01T03:12:33;35.13;;;19.67;;
65552;SDS011;52465;51.560;14.368;2023-03-01T03:15:00;34.78;;;19.55;;
65552;SDS011;52465;51.560;14.368;2023-03-01T03:17:25;33.92;;;19.88;;
65552;SDS011;52465;51.560;14.368;2023-03-01T03:19:51;37.83;;;18.92;;
65552;SDS011;52465;51.560;14.368;2023-03-01T03:22:17;38.50;;;20.17;;
65552;SDS011;52465;51.560;14.368;2023-03-01T03:24:42;32.20;;;19.38;;
65552;SDS011;52465;51.560;14.368;2023-03-01T03:27:08;33.17;;;18.15;;
65552;SDS011;52465;51.560;14.368;2023-03-01T03:29:34;24.60;;;16.52;;
65552;SDS011;52465;51.560;14.368;2023-03-01T03:31:59;25.90;;;18.17;;
65552;SDS011;52465;51.560;14.368;2023-03-01T03:34:24;30.42;;;17.73;;
65552;SDS011;52465;51.560;14.368;2023-03-01T03:36:54;30.42;;;17.52;;
65552;SDS011;52465;51.560;14.368;2023-03-01T03:39:24;32.53;;;18.85;;
65552;SDS011;52465;51.560;14.368;2023-03-01T03:41:51;30.52;;;17.95;;
65552;SDS011;52465;51.560;14.368;2023-03-01T03:44:20;29.27;;;17.83;;
65552;SDS011;52465;51.560;14.368;2023-03-01T03:46:46;35.58;;;19.00;;
65552;SDS011;52465;51.560;14.368;2023-03-01T03:49:11;31.23;;;18.58;;
65552;SDS011;52465;51.560;14.368;2023-03-01T03:51:37;33.00;;;19.20;;
65552;SDS011;52465;51.560;14.368;2023-03-01T03:54:05;35.25;;;18.55;;
65552;SDS011;52465;51.560;14.368;2023-03-01T03:56:33;35.05;;;19.13;;
65552;SDS011;52465;51.560;14.368;2023-03-01T03:58:59;31.38;;;18.02;;
65552;SDS011;52465;51.560;14.368;2023-03-01T04:01:25;30.98;;;18.80;;
65552;SDS011;52465;51.560;14.368;2023-03-01T04:03:51;29.55;;;18.20;;
65552;SDS011;52465;51.560;14.368;2023-03-01T04:06:22;35.97;;;18.45;;
65552;SDS011;52465;51.560;14.368;2023-03-01T04:08:47;37.15;;;19.15;;
65552;SDS011;52465;51.560;14.368;2023-03-01T04:11:16;33.00;;;18.95;;
65552;SDS011;52465;51.560;14.368;2023-03-01T04:13:52;34.30;;;18.00;;
65552;SDS011;52465;51.560;14.368;2023-03-01T04:16:23;35.75;;;19.05;;
65552;SDS011;52465;51.560;14.368;2023-03-01T04:18:49;31.92;;;18.48;;
65552;SDS011;52465;51.560;14.368;2023-03-01T04:21:14;32.47;;;19.20;;
65552;SDS011;52465;51.560;14.368;2023-03-01T04:23:40;34.53;;;19.08;;
65552;SDS011;52465;51.560;14.368;2023-03-01T04:26:06;35.28;;;18.48;;
65552;SDS011;52465;51.560;14.368;2023-03-01T04:28:38;31.73;;;18.38;;
65552;SDS011;52465;51.560;14.368;2023-03-01T04:31:09;38.40;;;20.20;;
65552;SDS011;52465;51.560;14.368;2023-03-01T04:33:49;32.55;;;18.00;;
65552;SDS011;52465;51.560;14.368;2023-03-01T04:36:17;32.65;;;17.92;;
65552;SDS011;52465;51.560;14.368;2023-03-01T04:38:44;30.95;;;18.15;;
65552;SDS011;52465;51.560;14.368;2023-03-01T04:41:16;24.33;;;16.98;;
65552;SDS011;52465;51.560;14.368;2023-03-01T04:43:43;28.85;;;17.65;;
65552;SDS011;52465;51.560;14.368;2023-03-01T04:46:12;32.08;;;18.63;;
65552;SDS011;52465;51.560;14.368;2023-03-01T04:48:40;27.42;;;16.98;;
65552;SDS011;52465;51.560;14.368;2023-03-01T04:51:07;31.27;;;17.92;;
65552;SDS011;52465;51.560;14.368;2023-03-01T04:53:33;28.92;;;17.73;;
65552;SDS011;52465;51.560;14.368;2023-03-01T04:56:02;28.77;;;17.92;;
65552;SDS011;52465;51.560;14.368;2023-03-01T04:58:28;33.42;;;17.23;;
65552;SDS011;52465;51.560;14.368;2023-03-01T05:00:54;30.40;;;17.45;;
65552;SDS011;52465;51.560;14.368;2023-03-01T05:03:20;28.90;;;17.50;;
65552;SDS011;52465;51.560;14.368;2023-03-01T05:05:47;31.50;;;18.73;;
65552;SDS011;52465;51.560;14.368;2023-03-01T05:08:14;36.42;;;18.92;;
65552;SDS011;52465;51.560;14.368;2023-03-01T05:10:47;38.17;;;19.42;;
65552;SDS011;52465;51.560;14.368;2023-03-01T05:13:15;32.08;;;18.05;;
65552;SDS011;52465;51.560;14.368;2023-03-01T05:15:47;29.17;;;17.98;;
65552;SDS011;52465;51.560;14.368;2023-03-01T05:18:18;28.60;;;18.13;;
65552;SDS011;52465;51.560;14.368;2023-03-01T05:20:44;29.90;;;18.17;;
65552;SDS011;52465;51.560;14.368;2023-03-01T05:23:10;26.08;;;17.30;;
65552;SDS011;52465;51.560;14.368;2023-03-01T05:25:35;31.88;;;16.95;;
65552;SDS011;52465;51.560;14.368;2023-03-01T05:28:05;25.40;;;16.88;;
65552;SDS011;52465;51.560;14.368;2023-03-01T05:30:35;26.45;;;17.35;;
65552;SDS011;52465;51.560;14.368;2023-03-01T05:33:01;26.90;;;17.08;;
65552;SDS011;52465;51.560;14.368;2023-03-01T05:35:27;27.33;;;16.52;;
65552;SDS011;52465;51.560;14.368;2023-03-01T05:37:54;26.58;;;16.15;;
65552;SDS011;52465;51.560;14.368;2023-03-01T05:40:21;29.00;;;17.45;;
65552;SDS011;52465;51.560;14.368;2023-03-01T05:42:52;26.10;;;16.33;;
65552;SDS011;52465;51.560;14.368;2023-03-01T05:45:20;23.98;;;16.73;;
65552;SDS011;52465;51.560;14.368;2023-03-01T05:47:47;25.33;;;16.60;;
65552;SDS011;52465;51.560;14.368;2023-03-01T05:50:14;29.23;;;17.48;;
65552;SDS011;52465;51.560;14.368;2023-03-01T05:52:46;26.58;;;16.90;;
65552;SDS011;52465;51.560;14.368;2023-03-01T05:55:19;29.60;;;17.90;;
65552;SDS011;52465;51.560;14.368;2023-03-01T05:57:46;22.70;;;16.35;;
65552;SDS011;52465;51.560;14.368;2023-03-01T06:00:12;26.58;;;16.30;;
65552;SDS011;52465;51.560;14.368;2023-03-01T06:02:38;22.88;;;15.48;;
65552;SDS011;52465;51.560;14.368;2023-03-01T06:05:06;25.27;;;16.98;;
65552;SDS011;52465;51.560;14.368;2023-03-01T06:07:33;25.65;;;16.30;;
65552;SDS011;52465;51.560;14.368;2023-03-01T06:10:00;30.63;;;17.65;;
65552;SDS011;52465;51.560;14.368;2023-03-01T06:12:25;24.85;;;15.60;;
65552;SDS011;52465;51.560;14.368;2023-03-01T06:14:53;23.00;;;16.05;;
65552;SDS011;52465;51.560;14.368;2023-03-01T06:17:19;32.30;;;17.15;;
65552;SDS011;52465;51.560;14.368;2023-03-01T06:19:46;23.40;;;15.10;;
65552;SDS011;52465;51.560;14.368;2023-03-01T06:22:12;22.80;;;16.10;;
65552;SDS011;52465;51.560;14.368;2023-03-01T06:24:38;24.00;;;16.33;;
65552;SDS011;52465;51.560;14.368;2023-03-01T06:27:05;27.35;;;16.33;;
65552;SDS011;52465;51.560;14.368;2023-03-01T06:29:48;27.15;;;16.55;;
65552;SDS011;52465;51.560;14.368;2023-03-01T06:32:46;24.65;;;15.02;;
65552;SDS011;52465;51.560;14.368;2023-03-01T06:35:13;21.63;;;14.55;;
65552;SDS011;52465;51.560;14.368;2023-03-01T06:37:42;21.05;;;15.20;;
65552;SDS011;52465;51.560;14.368;2023-03-01T06:40:09;28.45;;;16.30;;
65552;SDS011;52465;51.560;14.368;2023-03-01T06:42:37;30.58;;;16.20;;
65552;SDS011;52465;51.560;14.368;2023-03-01T06:47:33;31.33;;;17.13;;
65552;SDS011;52465;51.560;14.368;2023-03-01T06:50:00;25.02;;;15.75;;
65552;SDS011;52465;51.560;14.368;2023-03-01T06:52:26;29.90;;;17.50;;
65552;SDS011;52465;51.560;14.368;2023-03-01T06:54:51;23.15;;;16.48;;
65552;SDS011;52465;51.560;14.368;2023-03-01T06:57:19;23.23;;;17.60;;
65552;SDS011;52465;51.560;14.368;2023-03-01T06:59:46;27.75;;;17.55;;
65552;SDS011;52465;51.560;14.368;2023-03-01T07:02:12;28.75;;;17.83;;
65552;SDS011;52465;51.560;14.368;2023-03-01T07:04:38;25.27;;;16.67;;
65552;SDS011;52465;51.560;14.368;2023-03-01T07:07:04;26.38;;;17.23;;
65552;SDS011;52465;51.560;14.368;2023-03-01T07:09:30;31.00;;;18.02;;
65552;SDS011;52465;51.560;14.368;2023-03-01T07:11:56;28.48;;;18.60;;
65552;SDS011;52465;51.560;14.368;2023-03-01T07:14:24;25.92;;;17.02;;
65552;SDS011;52465;51.560;14.368;2023-03-01T07:16:53;26.38;;;16.95;;
65552;SDS011;52465;51.560;14.368;2023-03-01T07:19:22;25.92;;;17.00;;
65552;SDS011;52465;51.560;14.368;2023-03-01T07:21:48;26.50;;;17.55;;
65552;SDS011;52465;51.560;14.368;2023-03-01T07:24:16;21.00;;;16.10;;
65552;SDS011;52465;51.560;14.368;2023-03-01T07:26:42;31.02;;;18.00;;
65552;SDS011;52465;51.560;14.368;2023-03-01T07:29:09;28.98;;;17.80;;
65552;SDS011;52465;51.560;14.368;2023-03-01T07:31:35;22.08;;;17.25;;
65552;SDS011;52465;51.560;14.368;2023-03-01T07:34:02;28.63;;;17.63;;
65552;SDS011;52465;51.560;14.368;2023-03-01T07:36:28;24.58;;;16.67;;
65552;SDS011;52465;51.560;14.368;2023-03-01T07:38:53;25.30;;;17.60;;
65552;SDS011;52465;51.560;14.368;2023-03-01T07:41:20;26.20;;;17.50;;
65552;SDS011;52465;51.560;14.368;2023-03-01T07:43:46;26.52;;;17.77;;
65552;SDS011;52465;51.560;14.368;2023-03-01T07:46:16;28.38;;;17.17;;
65552;SDS011;52465;51.560;14.368;2023-03-01T07:48:46;26.67;;;16.77;;
65552;SDS011;52465;51.560;14.368;2023-03-01T07:51:11;21.75;;;16.02;;
65552;SDS011;52465;51.560;14.368;2023-03-01T07:53:37;23.83;;;16.13;;
65552;SDS011;52465;51.560;14.368;2023-03-01T07:56:06;27.27;;;16.58;;
65552;SDS011;52465;51.560;14.368;2023-03-01T07:58:36;23.35;;;16.85;;
65552;SDS011;52465;51.560;14.368;2023-03-01T08:01:04;24.45;;;16.63;;
65552;SDS011;52465;51.560;14.368;2023-03-01T08:03:32;26.73;;;16.60;;
65552;SDS011;52465;51.560;14.368;2023-03-01T08:06:04;22.52;;;15.68;;
65552;SDS011;52465;51.560;14.368;2023-03-01T08:08:32;20.27;;;14.25;;
65552;SDS011;52465;51.560;14.368;2023-03-01T08:10:59;23.00;;;15.90;;
65552;SDS011;52465;51.560;14.368;2023-03-01T08:15:54;19.05;;;15.13;;
65552;SDS011;52465;51.560;14.368;2023-03-01T08:18:19;21.92;;;15.40;;
65552;SDS011;52465;51.560;14.368;2023-03-01T08:20:45;24.58;;;15.43;;
65552;SDS011;52465;51.560;14.368;2023-03-01T08:23:14;24.55;;;16.30;;
65552;SDS011;52465;51.560;14.368;2023-03-01T08:25:39;26.52;;;16.45;;
65552;SDS011;52465;51.560;14.368;2023-03-01T08:28:09;25.92;;;16.23;;
65552;SDS011;52465;51.560;14.368;2023-03-01T08:30:34;22.42;;;14.27;;
65552;SDS011;52465;51.560;14.368;2023-03-01T08:33:00;15.98;;;14.07;;
65552;SDS011;52465;51.560;14.368;2023-03-01T08:35:26;22.02;;;15.18;;
65552;SDS011;52465;51.560;14.368;2023-03-01T08:37:51;27.00;;;16.30;;
65552;SDS011;52465;51.560;14.368;2023-03-01T08:40:17;19.90;;;16.65;;
65552;SDS011;52465;51.560;14.368;2023-03-01T08:49:08;17.97;;;14.20;;
65552;SDS011;52465;51.560;14.368;2023-03-01T08:51:36;26.48;;;16.45;;
65552;SDS011;52465;51.560;14.368;2023-03-01T08:54:09;25.73;;;16.15;;
65552;SDS011;52465;51.560;14.368;2023-03-01T08:56:44;18.27;;;13.80;;
65552;SDS011;52465;51.560;14.368;2023-03-01T08:59:10;20.08;;;15.77;;
65552;SDS011;52465;51.560;14.368;2023-03-01T09:01:47;18.45;;;13.70;;
65552;SDS011;52465;51.560;14.368;2023-03-01T09:04:14;21.27;;;14.15;;
65552;SDS011;52465;51.560;14.368;2023-03-01T09:06:41;21.17;;;14.70;;
65552;SDS011;52465;51.560;14.368;2023-03-01T09:09:10;27.13;;;15.48;;
65552;SDS011;52465;51.560;14.368;2023-03-01T09:11:40;20.85;;;15.30;;
65552;SDS011;52465;51.560;14.368;2023-03-01T09:14:05;18.88;;;13.93;;
65552;SDS011;52465;51.560;14.368;2023-03-01T09:16:31;22.80;;;16.48;;
65552;SDS011;52465;51.560;14.368;2023-03-01T09:19:00;20.83;;;14.63;;
65552;SDS011;52465;51.560;14.368;2023-03-01T09:21:29;22.98;;;15.57;;
65552;SDS011;52465;51.560;14.368;2023-03-01T09:24:14;19.27;;;13.70;;
65552;SDS011;52465;51.560;14.368;2023-03-01T09:26:43;19.98;;;14.57;;
65552;SDS011;52465;51.560;14.368;2023-03-01T09:29:11;20.13;;;15.02;;
65552;SDS011;52465;51.560;14.368;2023-03-01T09:31:36;19.73;;;16.10;;
65552;SDS011;52465;51.560;14.368;2023-03-01T09:34:02;20.77;;;14.77;;
65552;SDS011;52465;51.560;14.368;2023-03-01T09:36:28;17.20;;;13.85;;
65552;SDS011;52465;51.560;14.368;2023-03-01T09:38:54;18.40;;;13.95;;
65552;SDS011;52465;51.560;14.368;2023-03-01T09:44:10;17.65;;;13.85;;
65552;SDS011;52465;51.560;14.368;2023-03-01T09:46:45;18.63;;;13.20;;
65552;SDS011;52465;51.560;14.368;2023-03-01T09:49:21;19.65;;;15.18;;
65552;SDS011;52465;51.560;14.368;2023-03-01T09:51:55;20.45;;;13.68;;
65552;SDS011;52465;51.560;14.368;2023-03-01T09:54:39;14.32;;;12.15;;
65552;SDS011;52465;51.560;14.368;2023-03-01T10:05:05;15.43;;;12.85;;
65552;SDS011;52465;51.560;14.368;2023-03-01T10:08:06;21.30;;;14.55;;
65552;SDS011;52465;51.560;14.368;2023-03-01T10:10:48;16.33;;;13.45;;
65552;SDS011;52465;51.560;14.368;2023-03-01T10:16:03;18.48;;;13.98;;
65552;SDS011;52465;51.560;14.368;2023-03-01T10:18:36;18.25;;;12.75;;
65552;SDS011;52465;51.560;14.368;2023-03-01T10:21:17;20.58;;;13.82;;
65552;SDS011;52465;51.560;14.368;2023-03-01T10:23:44;15.90;;;12.65;;
65552;SDS011;52465;51.560;14.368;2023-03-01T10:26:22;17.73;;;13.63;;
65552;SDS011;52465;51.560;14.368;2023-03-01T10:31:46;21.85;;;13.52;;
65552;SDS011;52465;51.560;14.368;2023-03-01T10:34:27;15.07;;;12.10;;
65552;SDS011;52465;51.560;14.368;2023-03-01T10:37:01;16.58;;;12.52;;
65552;SDS011;52465;51.560;14.368;2023-03-01T10:39:33;15.82;;;12.30;;
65552;SDS011;52465;51.560;14.368;2023-03-01T10:41:59;25.88;;;14.20;;
65552;SDS011;52465;51.560;14.368;2023-03-01T10:44:37;17.40;;;12.90;;
65552;SDS011;52465;51.560;14.368;2023-03-01T10:49:38;20.35;;;13.93;;
65552;SDS011;52465;51.560;14.368;2023-03-01T10:58:05;15.35;;;11.68;;
65552;SDS011;52465;51.560;14.368;2023-03-01T11:03:32;17.08;;;13.43;;
65552;SDS011;52465;51.560;14.368;2023-03-01T11:06:05;18.35;;;12.77;;
65552;SDS011;52465;51.560;14.368;2023-03-01T11:08:46;21.67;;;13.38;;
65552;SDS011;52465;51.560;14.368;2023-03-01T11:11:24;18.35;;;12.18;;
65552;SDS011;52465;51.560;14.368;2023-03-01T11:16:32;16.25;;;11.65;;
65552;SDS011;52465;51.560;14.368;2023-03-01T11:19:07;20.40;;;13.07;;
65552;SDS011;52465;51.560;14.368;2023-03-01T11:22:01;16.90;;;12.40;;
65552;SDS011;52465;51.560;14.368;2023-03-01T11:24:40;21.08;;;12.77;;
65552;SDS011;52465;51.560;14.368;2023-03-01T11:27:14;15.15;;;12.52;;
65552;SDS011;52465;51.560;14.368;2023-03-01T11:30:24;16.33;;;11.93;;
65552;SDS011;52465;51.560;14.368;2023-03-01T11:35:41;16.15;;;11.98;;
65552;SDS011;52465;51.560;14.368;2023-03-01T11:38:36;16.08;;;12.15;;
65552;SDS011;52465;51.560;14.368;2023-03-01T11:49:30;16.42;;;12.45;;
65552;SDS011;52465;51.560;14.368;2023-03-01T11:57:36;20.02;;;13.30;;
65552;SDS011;52465;51.560;14.368;2023-03-01T12:02:51;17.88;;;12.48;;
65552;SDS011;52465;51.560;14.368;2023-03-01T12:08:06;16.60;;;13.02;;
65552;SDS011;52465;51.560;14.368;2023-03-01T12:10:40;17.27;;;12.52;;
65552;SDS011;52465;51.560;14.368;2023-03-01T12:16:41;14.25;;;11.80;;
65552;SDS011;52465;51.560;14.368;2023-03-01T12:19:29;16.75;;;11.82;;
65552;SDS011;52465;51.560;14.368;2023-03-01T12:22:09;17.27;;;12.68;;
65552;SDS011;52465;51.560;14.368;2023-03-01T12:25:00;20.90;;;13.10;;
65552;SDS011;52465;51.560;14.368;2023-03-01T12:42:40;13.15;;;11.73;;
65552;SDS011;52465;51.560;14.368;2023-03-01T12:48:01;12.65;;;11.43;;
65552;SDS011;52465;51.560;14.368;2023-03-01T12:53:31;16.30;;;12.60;;
65552;SDS011;52465;51.560;14.368;2023-03-01T12:56:04;13.68;;;12.38;;
65552;SDS011;52465;51.560;14.368;2023-03-01T12:58:42;16.50;;;12.35;;
65552;SDS011;52465;51.560;14.368;2023-03-01T13:04:40;11.95;;;10.68;;
65552;SDS011;52465;51.560;14.368;2023-03-01T13:10:06;14.10;;;10.88;;
65552;SDS011;52465;51.560;14.368;2023-03-01T13:17:50;15.18;;;12.13;;
65552;SDS011;52465;51.560;14.368;2023-03-01T13:23:23;16.30;;;12.35;;
65552;SDS011;52465;51.560;14.368;2023-03-01T13:28:38;14.10;;;11.43;;
65552;SDS011;52465;51.560;14.368;2023-03-01T13:31:55;14.13;;;10.80;;
65552;SDS011;52465;51.560;14.368;2023-03-01T13:34:38;14.27;;;12.45;;
65552;SDS011;52465;51.560;14.368;2023-03-01T13:36:47;12.52;;;11.32;;
65552;SDS011;52465;51.560;14.368;2023-03-01T13:39:28;15.07;;;11.50;;
65552;SDS011;52465;51.560;14.368;2023-03-01T13:41:59;14.55;;;11.20;;
65552;SDS011;52465;51.560;14.368;2023-03-01T13:44:43;16.02;;;12.68;;
65552;SDS011;52465;51.560;14.368;2023-03-01T13:49:43;13.57;;;10.77;;
65552;SDS011;52465;51.560;14.368;2023-03-01T13:55:00;13.23;;;11.10;;
65552;SDS011;52465;51.560;14.368;2023-03-01T13:57:33;15.00;;;11.52;;
65552;SDS011;52465;51.560;14.368;2023-03-01T14:00:00;13.70;;;10.73;;
65552;SDS011;52465;51.560;14.368;2023-03-01T14:02:27;17.92;;;12.15;;
65552;SDS011;52465;51.560;14.368;2023-03-01T14:04:58;14.70;;;11.27;;
65552;SDS011;52465;51.560;14.368;2023-03-01T14:07:24;15.68;;;11.63;;
65552;SDS011;52465;51.560;14.368;2023-03-01T14:09:57;11.50;;;10.30;;
65552;SDS011;52465;51.560;14.368;2023-03-01T14:15:21;13.95;;;11.50;;
65552;SDS011;52465;51.560;14.368;2023-03-01T14:20:47;14.18;;;11.35;;
65552;SDS011;52465;51.560;14.368;2023-03-01T14:23:17;11.38;;;10.15;;
65552;SDS011;52465;51.560;14.368;2023-03-01T14:25:48;14.15;;;10.93;;
65552;SDS011;52465;51.560;14.368;2023-03-01T14:28:18;12.65;;;10.38;;
65552;SDS011;52465;51.560;14.368;2023-03-01T14:30:48;13.63;;;11.38;;
65552;SDS011;52465;51.560;14.368;2023-03-01T14:33:19;14.57;;;11.98;;
65552;SDS011;52465;51.560;14.368;2023-03-01T14:35:54;13.13;;;10.77;;
65552;SDS011;52465;51.560;14.368;2023-03-01T14:38:23;16.08;;;12.02;;
65552;SDS011;52465;51.560;14.368;2023-03-01T14:40:54;11.80;;;10.60;;
65552;SDS011;52465;51.560;14.368;2023-03-01T14:43:23;10.68;;;9.63;;
65552;SDS011;52465;51.560;14.368;2023-03-01T14:45:51;12.85;;;11.55;;
65552;SDS011;52465;51.560;14.368;2023-03-01T14:48:17;15.68;;;11.23;;
65552;SDS011;52465;51.560;14.368;2023-03-01T14:50:46;11.82;;;10.73;;
65552;SDS011;52465;51.560;14.368;2023-03-01T14:53:20;12.73;;;10.13;;
65552;SDS011;52465;51.560;14.368;2023-03-01T14:55:53;12.02;;;10.40;;
65552;SDS011;52465;51.560;14.368;2023-03-01T14:58:28;14.43;;;11.27;;
65552;SDS011;52465;51.560;14.368;2023-03-01T15:00:59;14.32;;;11.63;;
65552;SDS011;52465;51.560;14.368;2023-03-01T15:03:42;12.80;;;11.45;;
65552;SDS011;52465;51.560;14.368;2023-03-01T15:06:11;14.38;;;11.23;;
65552;SDS011;52465;51.560;14.368;2023-03-01T15:08:47;14.70;;;11.73;;
65552;SDS011;52465;51.560;14.368;2023-03-01T15:13:57;12.80;;;11.43;;
65552;SDS011;52465;51.560;14.368;2023-03-01T15:24:00;11.13;;;10.13;;
65552;SDS011;52465;51.560;14.368;2023-03-01T15:29:20;12.18;;;10.88;;
65552;SDS011;52465;51.560;14.368;2023-03-01T15:31:55;11.65;;;10.55;;
65552;SDS011;52465;51.560;14.368;2023-03-01T15:34:23;12.38;;;10.18;;
65552;SDS011;52465;51.560;14.368;2023-03-01T15:36:49;11.05;;;10.02;;
65552;SDS011;52465;51.560;14.368;2023-03-01T15:39:25;11.88;;;10.68;;
65552;SDS011;52465;51.560;14.368;2023-03-01T15:44:39;10.80;;;9.80;;
65552;SDS011;52465;51.560;14.368;2023-03-01T15:47:23;11.35;;;10.00;;
65552;SDS011;52465;51.560;14.368;2023-03-01T15:52:27;11.45;;;10.25;;
65552;SDS011;52465;51.560;14.368;2023-03-01T15:55:00;10.90;;;9.77;;
65552;SDS011;52465;51.560;14.368;2023-03-01T15:57:27;10.95;;;9.85;;
65552;SDS011;52465;51.560;14.368;2023-03-01T15:59:53;9.70;;;8.98;;
65552;SDS011;52465;51.560;14.368;2023-03-01T16:02:18;11.93;;;10.73;;
65552;SDS011;52465;51.560;14.368;2023-03-01T16:04:46;11.55;;;10.00;;
65552;SDS011;52465;51.560;14.368;2023-03-01T16:07:13;11.82;;;9.70;;
65552;SDS011;52465;51.560;14.368;2023-03-01T16:09:39;10.55;;;9.63;;
65552;SDS011;52465;51.560;14.368;2023-03-01T16:12:05;9.88;;;8.95;;
65552;SDS011;52465;51.560;14.368;2023-03-01T16:14:31;12.00;;;9.63;;
65552;SDS011;52465;51.560;14.368;2023-03-01T16:16:58;10.15;;;9.23;;
65552;SDS011;52465;51.560;14.368;2023-03-01T16:19:24;11.88;;;10.45;;
65552;SDS011;52465;51.560;14.368;2023-03-01T16:21:49;10.50;;;9.50;;
65552;SDS011;52465;51.560;14.368;2023-03-01T16:24:15;10.85;;;9.45;;
65552;SDS011;52465;51.560;14.368;2023-03-01T16:26:42;11.63;;;9.10;;
65552;SDS011;52465;51.560;14.368;2023-03-01T16:29:07;12.45;;;10.00;;
65552;SDS011;52465;51.560;14.368;2023-03-01T16:31:33;10.73;;;8.75;;
65552;SDS011;52465;51.560;14.368;2023-03-01T16:33:58;10.93;;;8.70;;
65552;SDS011;52465;51.560;14.368;2023-03-01T16:36:25;9.57;;;8.68;;
65552;SDS011;52465;51.560;14.368;2023-03-01T16:38:53;9.27;;;8.52;;
65552;SDS011;52465;51.560;14.368;2023-03-01T16:41:20;10.05;;;9.15;;
65552;SDS011;52465;51.560;14.368;2023-03-01T16:43:47;9.95;;;9.15;;
65552;SDS011;52465;51.560;14.368;2023-03-01T16:46:14;10.18;;;9.15;;
65552;SDS011;52465;51.560;14.368;2023-03-01T16:48:42;10.15;;;9.00;;
65552;SDS011;52465;51.560;14.368;2023-03-01T16:51:11;9.52;;;8.63;;
65552;SDS011;52465;51.560;14.368;2023-03-01T16:53:37;10.57;;;9.48;;
65552;SDS011;52465;51.560;14.368;2023-03-01T16:56:05;10.60;;;9.60;;
65552;SDS011;52465;51.560;14.368;2023-03-01T16:58:32;9.93;;;8.90;;
65552;SDS011;52465;51.560;14.368;2023-03-01T17:01:04;9.73;;;8.40;;